sensor_id;sensor_type;location;lat;lon;timestamp;temperature;humidity
39525;DHT22;25203;50.754;6.978;2024-03-17T00:01:12;4.80;99.90
39525;DHT22;25203;50.754;6.978;2024-03-17T00:03:13;4.80;99.90
39525;DHT22;25203;50.754;6.978;2024-03-17T00:05:14;4.80;99.90
39525;DHT22;25203;50.754;6.978;2024-03-17T00:07:14;4.80;99.90
39525;DHT22;25203;50.754;6.978;2024-03-17T00:09:15;4.70;99.90
39525;DHT22;25203;50.754;6.978;2024-03-17T00:11:16;4.70;99.90
39525;DHT22;25203;50.754;6.978;2024-03-17T00:13:17;4.70;99.90
39525;DHT22;25203;50.754;6.978;2024-03-17T00:15:18;4.70;99.90
39525;DHT22;25203;50.754;6.978;2024-03-17T00:17:19;4.60;99.90
39525;DHT22;25203;50.754;6.978;2024-03-17T00:19:21;4.60;99.90
39525;DHT22;25203;50.754;6.978;2024-03-17T00:21:23;4.60;99.90
39525;DHT22;25203;50.754;6.978;2024-03-17T00:23:24;4.60;99.90
39525;DHT22;25203;50.754;6.978;2024-03-17T00:25:25;4.70;99.90
39525;DHT22;25203;50.754;6.978;2024-03-17T00:27:27;4.60;99.90
39525;DHT22;25203;50.754;6.978;2024-03-17T00:29:27;4.60;99.90
39525;DHT22;25203;50.754;6.978;2024-03-17T00:31:28;4.60;99.90
39525;DHT22;25203;50.754;6.978;2024-03-17T00:33:29;4.50;99.90
39525;DHT22;25203;50.754;6.978;2024-03-17T00:35:29;4.50;99.90
39525;DHT22;25203;50.754;6.978;2024-03-17T00:37:31;4.50;99.90
39525;DHT22;25203;50.754;6.978;2024-03-17T00:39:31;4.50;99.90
39525;DHT22;25203;50.754;6.978;2024-03-17T00:41:33;4.50;99.90
39525;DHT22;25203;50.754;6.978;2024-03-17T00:43:33;4.50;99.90
39525;DHT22;25203;50.754;6.978;2024-03-17T00:45:34;4.40;99.90
39525;DHT22;25203;50.754;6.978;2024-03-17T00:47:34;4.40;99.90
39525;DHT22;25203;50.754;6.978;2024-03-17T00:49:35;4.30;99.90
39525;DHT22;25203;50.754;6.978;2024-03-17T00:51:35;4.30;99.90
39525;DHT22;25203;50.754;6.978;2024-03-17T00:53:36;4.20;99.90
39525;DHT22;25203;50.754;6.978;2024-03-17T00:55:37;4.20;99.90
39525;DHT22;25203;50.754;6.978;2024-03-17T00:57:38;4.20;99.90
39525;DHT22;25203;50.754;6.978;2024-03-17T00:59:39;4.10;99.90
39525;DHT22;25203;50.754;6.978;2024-03-17T01:01:39;4.20;99.90
39525;DHT22;25203;50.754;6.978;2024-03-17T01:03:40;4.20;99.90
39525;DHT22;25203;50.754;6.978;2024-03-17T01:05:40;4.10;99.90
39525;DHT22;25203;50.754;6.978;2024-03-17T01:07:43;4.10;99.90
39525;DHT22;25203;50.754;6.978;2024-03-17T01:09:47;4.00;99.90
39525;DHT22;25203;50.754;6.978;2024-03-17T01:11:48;4.00;99.90
39525;DHT22;25203;50.754;6.978;2024-03-17T01:13:48;4.00;99.90
39525;DHT22;25203;50.754;6.978;2024-03-17T01:15:52;3.90;99.90
39525;DHT22;25203;50.754;6.978;2024-03-17T01:17:53;3.90;99.90
39525;DHT22;25203;50.754;6.978;2024-03-17T01:19:53;3.90;99.90
39525;DHT22;25203;50.754;6.978;2024-03-17T01:21:54;3.90;99.90
39525;DHT22;25203;50.754;6.978;2024-03-17T01:23:54;3.80;99.90
39525;DHT22;25203;50.754;6.978;2024-03-17T01:25:55;3.80;99.90
39525;DHT22;25203;50.754;6.978;2024-03-17T01:27:56;3.80;99.90
39525;DHT22;25203;50.754;6.978;2024-03-17T01:29:57;3.80;99.90
39525;DHT22;25203;50.754;6.978;2024-03-17T01:31:57;4.00;99.90
39525;DHT22;25203;50.754;6.978;2024-03-17T01:33:58;4.20;99.90
39525;DHT22;25203;50.754;6.978;2024-03-17T01:35:58;4.30;99.90
39525;DHT22;25203;50.754;6.978;2024-03-17T01:37:59;4.40;99.90
39525;DHT22;25203;50.754;6.978;2024-03-17T01:40:00;4.50;99.90
39525;DHT22;25203;50.754;6.978;2024-03-17T01:42:00;4.60;99.90
39525;DHT22;25203;50.754;6.978;2024-03-17T01:44:01;4.60;99.90
39525;DHT22;25203;50.754;6.978;2024-03-17T01:46:02;4.70;99.90
39525;DHT22;25203;50.754;6.978;2024-03-17T01:48:03;4.70;99.90
39525;DHT22;25203;50.754;6.978;2024-03-17T01:50:04;4.80;99.90
39525;DHT22;25203;50.754;6.978;2024-03-17T01:52:06;4.80;99.90
39525;DHT22;25203;50.754;6.978;2024-03-17T01:54:08;4.90;99.90
39525;DHT22;25203;50.754;6.978;2024-03-17T01:56:10;4.90;99.90
39525;DHT22;25203;50.754;6.978;2024-03-17T01:58:12;5.00;99.90
39525;DHT22;25203;50.754;6.978;2024-03-17T02:00:13;5.00;99.90
39525;DHT22;25203;50.754;6.978;2024-03-17T02:02:14;5.00;99.90
39525;DHT22;25203;50.754;6.978;2024-03-17T02:04:15;5.00;99.90
39525;DHT22;25203;50.754;6.978;2024-03-17T02:06:18;4.90;99.90
39525;DHT22;25203;50.754;6.978;2024-03-17T02:08:18;4.90;99.90
39525;DHT22;25203;50.754;6.978;2024-03-17T02:10:20;4.80;99.90
39525;DHT22;25203;50.754;6.978;2024-03-17T02:12:22;4.70;99.90
39525;DHT22;25203;50.754;6.978;2024-03-17T02:14:23;4.60;99.90
39525;DHT22;25203;50.754;6.978;2024-03-17T02:16:23;4.50;99.90
39525;DHT22;25203;50.754;6.978;2024-03-17T02:18:24;4.50;99.90
39525;DHT22;25203;50.754;6.978;2024-03-17T02:20:25;4.60;99.90
39525;DHT22;25203;50.754;6.978;2024-03-17T02:22:46;4.70;99.90
39525;DHT22;25203;50.754;6.978;2024-03-17T02:24:46;4.80;99.90
39525;DHT22;25203;50.754;6.978;2024-03-17T02:26:47;4.90;99.90
39525;DHT22;25203;50.754;6.978;2024-03-17T02:28:47;5.00;99.90
39525;DHT22;25203;50.754;6.978;2024-03-17T02:30:48;5.10;99.90
39525;DHT22;25203;50.754;6.978;2024-03-17T02:32:52;5.10;99.90
39525;DHT22;25203;50.754;6.978;2024-03-17T02:34:53;5.20;99.90
39525;DHT22;25203;50.754;6.978;2024-03-17T02:36:55;5.20;99.90
39525;DHT22;25203;50.754;6.978;2024-03-17T02:38:55;5.20;99.90
39525;DHT22;25203;50.754;6.978;2024-03-17T02:41:15;5.30;99.90
39525;DHT22;25203;50.754;6.978;2024-03-17T02:43:16;5.30;99.90
39525;DHT22;25203;50.754;6.978;2024-03-17T02:45:17;5.30;99.90
39525;DHT22;25203;50.754;6.978;2024-03-17T02:47:17;5.30;99.90
39525;DHT22;25203;50.754;6.978;2024-03-17T02:49:18;5.30;99.90
39525;DHT22;25203;50.754;6.978;2024-03-17T02:51:20;5.30;99.90
39525;DHT22;25203;50.754;6.978;2024-03-17T02:53:21;5.30;99.90
39525;DHT22;25203;50.754;6.978;2024-03-17T02:55:22;5.30;99.90
39525;DHT22;25203;50.754;6.978;2024-03-17T02:57:23;5.30;99.90
39525;DHT22;25203;50.754;6.978;2024-03-17T02:59:30;5.30;99.90
39525;DHT22;25203;50.754;6.978;2024-03-17T03:01:31;5.20;99.90
39525;DHT22;25203;50.754;6.978;2024-03-17T03:03:32;5.20;99.90
39525;DHT22;25203;50.754;6.978;2024-03-17T03:05:33;5.20;99.90
39525;DHT22;25203;50.754;6.978;2024-03-17T03:07:34;5.20;99.90
39525;DHT22;25203;50.754;6.978;2024-03-17T03:09:34;5.10;99.90
39525;DHT22;25203;50.754;6.978;2024-03-17T03:11:35;5.10;99.90
39525;DHT22;25203;50.754;6.978;2024-03-17T03:13:36;5.10;99.90
39525;DHT22;25203;50.754;6.978;2024-03-17T03:15:36;5.00;99.90
39525;DHT22;25203;50.754;6.978;2024-03-17T03:17:37;5.00;99.90
39525;DHT22;25203;50.754;6.978;2024-03-17T03:19:38;4.90;99.90
39525;DHT22;25203;50.754;6.978;2024-03-17T03:21:39;4.80;99.90
39525;DHT22;25203;50.754;6.978;2024-03-17T03:23:40;4.70;99.90
39525;DHT22;25203;50.754;6.978;2024-03-17T03:25:40;4.60;99.90
39525;DHT22;25203;50.754;6.978;2024-03-17T03:27:41;4.40;99.90
39525;DHT22;25203;50.754;6.978;2024-03-17T03:29:41;4.40;99.90
39525;DHT22;25203;50.754;6.978;2024-03-17T03:31:42;4.30;99.90
39525;DHT22;25203;50.754;6.978;2024-03-17T03:33:43;4.20;99.90
39525;DHT22;25203;50.754;6.978;2024-03-17T03:35:44;4.10;99.90
39525;DHT22;25203;50.754;6.978;2024-03-17T03:37:44;4.20;99.90
39525;DHT22;25203;50.754;6.978;2024-03-17T03:39:45;4.10;99.90
39525;DHT22;25203;50.754;6.978;2024-03-17T03:41:45;4.10;99.90
39525;DHT22;25203;50.754;6.978;2024-03-17T03:43:46;4.10;99.90
39525;DHT22;25203;50.754;6.978;2024-03-17T03:45:47;4.10;99.90
39525;DHT22;25203;50.754;6.978;2024-03-17T03:47:49;4.10;99.90
39525;DHT22;25203;50.754;6.978;2024-03-17T03:49:50;4.00;99.90
39525;DHT22;25203;50.754;6.978;2024-03-17T03:51:51;3.90;99.90
39525;DHT22;25203;50.754;6.978;2024-03-17T03:53:51;3.80;99.90
39525;DHT22;25203;50.754;6.978;2024-03-17T03:55:52;3.70;99.90
39525;DHT22;25203;50.754;6.978;2024-03-17T03:57:53;3.60;99.90
39525;DHT22;25203;50.754;6.978;2024-03-17T03:59:54;3.50;99.90
39525;DHT22;25203;50.754;6.978;2024-03-17T04:01:55;3.50;99.90
39525;DHT22;25203;50.754;6.978;2024-03-17T04:03:56;3.50;99.90
39525;DHT22;25203;50.754;6.978;2024-03-17T04:06:08;3.50;99.90
39525;DHT22;25203;50.754;6.978;2024-03-17T04:08:09;3.50;99.90
39525;DHT22;25203;50.754;6.978;2024-03-17T04:10:10;3.40;99.90
39525;DHT22;25203;50.754;6.978;2024-03-17T04:12:11;3.40;99.90
39525;DHT22;25203;50.754;6.978;2024-03-17T04:14:12;3.60;99.90
39525;DHT22;25203;50.754;6.978;2024-03-17T04:16:13;3.60;99.90
39525;DHT22;25203;50.754;6.978;2024-03-17T04:18:14;3.70;99.90
39525;DHT22;25203;50.754;6.978;2024-03-17T04:20:16;3.70;99.90
39525;DHT22;25203;50.754;6.978;2024-03-17T04:22:18;3.60;99.90
39525;DHT22;25203;50.754;6.978;2024-03-17T04:24:18;3.50;99.90
39525;DHT22;25203;50.754;6.978;2024-03-17T04:26:19;3.50;99.90
39525;DHT22;25203;50.754;6.978;2024-03-17T04:28:20;3.60;99.90
39525;DHT22;25203;50.754;6.978;2024-03-17T04:30:20;3.70;99.90
39525;DHT22;25203;50.754;6.978;2024-03-17T04:32:22;3.90;99.90
39525;DHT22;25203;50.754;6.978;2024-03-17T04:34:22;4.20;99.90
39525;DHT22;25203;50.754;6.978;2024-03-17T04:36:23;4.40;99.90
39525;DHT22;25203;50.754;6.978;2024-03-17T04:38:24;4.70;99.90
39525;DHT22;25203;50.754;6.978;2024-03-17T04:40:24;4.90;99.90
39525;DHT22;25203;50.754;6.978;2024-03-17T04:42:26;5.10;99.90
39525;DHT22;25203;50.754;6.978;2024-03-17T04:44:26;5.30;99.90
39525;DHT22;25203;50.754;6.978;2024-03-17T04:46:27;5.40;99.90
39525;DHT22;25203;50.754;6.978;2024-03-17T04:48:28;5.50;99.90
39525;DHT22;25203;50.754;6.978;2024-03-17T04:50:28;5.50;99.90
39525;DHT22;25203;50.754;6.978;2024-03-17T04:52:32;5.60;99.90
39525;DHT22;25203;50.754;6.978;2024-03-17T04:54:33;5.60;99.90
39525;DHT22;25203;50.754;6.978;2024-03-17T04:56:34;5.60;99.90
39525;DHT22;25203;50.754;6.978;2024-03-17T04:58:35;5.60;99.90
39525;DHT22;25203;50.754;6.978;2024-03-17T05:00:35;5.60;99.90
39525;DHT22;25203;50.754;6.978;2024-03-17T05:02:36;5.70;99.90
39525;DHT22;25203;50.754;6.978;2024-03-17T05:04:36;5.70;99.90
39525;DHT22;25203;50.754;6.978;2024-03-17T05:06:37;5.70;99.90
39525;DHT22;25203;50.754;6.978;2024-03-17T05:08:38;5.60;99.90
39525;DHT22;25203;50.754;6.978;2024-03-17T05:10:38;5.60;99.90
39525;DHT22;25203;50.754;6.978;2024-03-17T05:12:39;5.60;99.90
39525;DHT22;25203;50.754;6.978;2024-03-17T05:14:39;5.50;99.90
39525;DHT22;25203;50.754;6.978;2024-03-17T05:16:40;5.50;99.90
39525;DHT22;25203;50.754;6.978;2024-03-17T05:18:41;5.40;99.90
39525;DHT22;25203;50.754;6.978;2024-03-17T05:20:41;5.30;99.90
39525;DHT22;25203;50.754;6.978;2024-03-17T05:22:42;5.30;99.90
39525;DHT22;25203;50.754;6.978;2024-03-17T05:24:44;5.30;99.90
39525;DHT22;25203;50.754;6.978;2024-03-17T05:26:45;5.30;99.90
39525;DHT22;25203;50.754;6.978;2024-03-17T05:28:46;5.20;99.90
39525;DHT22;25203;50.754;6.978;2024-03-17T05:30:46;5.20;99.90
39525;DHT22;25203;50.754;6.978;2024-03-17T05:32:48;5.20;99.90
39525;DHT22;25203;50.754;6.978;2024-03-17T05:34:49;5.10;99.90
39525;DHT22;25203;50.754;6.978;2024-03-17T05:36:53;5.00;99.90
39525;DHT22;25203;50.754;6.978;2024-03-17T05:38:53;5.00;99.90
39525;DHT22;25203;50.754;6.978;2024-03-17T05:42:58;4.80;99.90
39525;DHT22;25203;50.754;6.978;2024-03-17T05:45:00;4.70;99.90
39525;DHT22;25203;50.754;6.978;2024-03-17T05:47:01;4.60;99.90
39525;DHT22;25203;50.754;6.978;2024-03-17T05:49:01;4.60;99.90
39525;DHT22;25203;50.754;6.978;2024-03-17T05:51:07;4.50;99.90
39525;DHT22;25203;50.754;6.978;2024-03-17T05:53:08;4.40;99.90
39525;DHT22;25203;50.754;6.978;2024-03-17T05:55:09;4.40;99.90
39525;DHT22;25203;50.754;6.978;2024-03-17T05:57:11;4.30;99.90
39525;DHT22;25203;50.754;6.978;2024-03-17T05:59:14;4.20;99.90
39525;DHT22;25203;50.754;6.978;2024-03-17T06:01:14;4.20;99.90
39525;DHT22;25203;50.754;6.978;2024-03-17T06:03:15;4.20;99.90
39525;DHT22;25203;50.754;6.978;2024-03-17T06:05:16;4.10;99.90
39525;DHT22;25203;50.754;6.978;2024-03-17T06:07:17;4.10;99.90
39525;DHT22;25203;50.754;6.978;2024-03-17T06:09:17;4.10;99.90
39525;DHT22;25203;50.754;6.978;2024-03-17T06:11:19;4.10;99.90
39525;DHT22;25203;50.754;6.978;2024-03-17T06:13:20;4.00;99.90
39525;DHT22;25203;50.754;6.978;2024-03-17T06:15:21;3.90;99.90
39525;DHT22;25203;50.754;6.978;2024-03-17T06:17:23;3.80;99.90
39525;DHT22;25203;50.754;6.978;2024-03-17T06:19:24;3.80;99.90
39525;DHT22;25203;50.754;6.978;2024-03-17T06:21:24;4.00;99.90
39525;DHT22;25203;50.754;6.978;2024-03-17T06:23:26;4.20;99.90
39525;DHT22;25203;50.754;6.978;2024-03-17T06:25:29;4.30;99.90
39525;DHT22;25203;50.754;6.978;2024-03-17T06:27:30;4.40;99.90
39525;DHT22;25203;50.754;6.978;2024-03-17T06:29:33;4.50;99.90
39525;DHT22;25203;50.754;6.978;2024-03-17T06:31:33;4.50;99.90
39525;DHT22;25203;50.754;6.978;2024-03-17T06:33:34;4.50;99.90
39525;DHT22;25203;50.754;6.978;2024-03-17T06:35:36;4.50;99.90
39525;DHT22;25203;50.754;6.978;2024-03-17T06:37:37;4.40;99.90
39525;DHT22;25203;50.754;6.978;2024-03-17T06:39:38;4.50;99.90
39525;DHT22;25203;50.754;6.978;2024-03-17T06:41:39;4.50;99.90
39525;DHT22;25203;50.754;6.978;2024-03-17T06:43:40;4.50;99.90
39525;DHT22;25203;50.754;6.978;2024-03-17T06:45:43;4.60;99.90
39525;DHT22;25203;50.754;6.978;2024-03-17T06:47:44;4.70;99.90
39525;DHT22;25203;50.754;6.978;2024-03-17T06:49:45;4.90;99.90
39525;DHT22;25203;50.754;6.978;2024-03-17T06:51:45;5.10;99.90
39525;DHT22;25203;50.754;6.978;2024-03-17T06:53:46;5.30;99.90
39525;DHT22;25203;50.754;6.978;2024-03-17T06:56:12;5.40;99.90
39525;DHT22;25203;50.754;6.978;2024-03-17T06:58:13;5.60;99.90
39525;DHT22;25203;50.754;6.978;2024-03-17T07:00:14;5.70;99.90
39525;DHT22;25203;50.754;6.978;2024-03-17T07:02:16;5.80;99.90
39525;DHT22;25203;50.754;6.978;2024-03-17T07:04:18;5.90;99.90
39525;DHT22;25203;50.754;6.978;2024-03-17T07:08:31;6.10;99.90
39525;DHT22;25203;50.754;6.978;2024-03-17T07:10:32;6.20;99.90
39525;DHT22;25203;50.754;6.978;2024-03-17T07:12:33;6.30;99.90
39525;DHT22;25203;50.754;6.978;2024-03-17T07:14:34;6.50;99.90
39525;DHT22;25203;50.754;6.978;2024-03-17T07:16:34;6.60;99.90
39525;DHT22;25203;50.754;6.978;2024-03-17T07:18:35;6.80;99.90
39525;DHT22;25203;50.754;6.978;2024-03-17T07:20:37;7.00;99.90
39525;DHT22;25203;50.754;6.978;2024-03-17T07:22:39;7.10;99.90
39525;DHT22;25203;50.754;6.978;2024-03-17T07:24:39;7.30;99.90
39525;DHT22;25203;50.754;6.978;2024-03-17T07:26:40;7.40;99.90
39525;DHT22;25203;50.754;6.978;2024-03-17T07:28:40;7.50;99.90
39525;DHT22;25203;50.754;6.978;2024-03-17T07:30:49;7.60;99.90
39525;DHT22;25203;50.754;6.978;2024-03-17T07:32:50;7.70;99.90
39525;DHT22;25203;50.754;6.978;2024-03-17T07:34:51;7.80;99.90
39525;DHT22;25203;50.754;6.978;2024-03-17T07:36:52;8.00;99.90
39525;DHT22;25203;50.754;6.978;2024-03-17T07:38:53;8.20;99.90
39525;DHT22;25203;50.754;6.978;2024-03-17T07:41:03;8.40;99.90
39525;DHT22;25203;50.754;6.978;2024-03-17T07:43:04;8.60;99.90
39525;DHT22;25203;50.754;6.978;2024-03-17T07:45:04;9.10;99.90
39525;DHT22;25203;50.754;6.978;2024-03-17T07:47:05;9.70;99.90
39525;DHT22;25203;50.754;6.978;2024-03-17T07:49:06;10.40;99.90
39525;DHT22;25203;50.754;6.978;2024-03-17T07:53:10;11.60;99.30
39525;DHT22;25203;50.754;6.978;2024-03-17T07:55:10;11.90;98.50
39525;DHT22;25203;50.754;6.978;2024-03-17T07:57:11;11.90;97.70
39525;DHT22;25203;50.754;6.978;2024-03-17T07:59:12;11.70;98.10
39525;DHT22;25203;50.754;6.978;2024-03-17T08:01:17;11.60;98.90
39525;DHT22;25203;50.754;6.978;2024-03-17T08:03:18;11.70;98.50
39525;DHT22;25203;50.754;6.978;2024-03-17T08:05:19;11.80;98.10
39525;DHT22;25203;50.754;6.978;2024-03-17T08:07:19;12.10;98.10
39525;DHT22;25203;50.754;6.978;2024-03-17T08:09:20;12.30;97.10
39525;DHT22;25203;50.754;6.978;2024-03-17T08:11:20;12.20;96.70
39525;DHT22;25203;50.754;6.978;2024-03-17T08:13:21;12.20;96.80
39525;DHT22;25203;50.754;6.978;2024-03-17T08:15:23;12.40;96.90
39525;DHT22;25203;50.754;6.978;2024-03-17T08:17:24;12.70;96.80
39525;DHT22;25203;50.754;6.978;2024-03-17T08:19:25;13.20;95.80
39525;DHT22;25203;50.754;6.978;2024-03-17T08:21:26;13.90;95.40
39525;DHT22;25203;50.754;6.978;2024-03-17T08:23:29;14.30;94.40
39525;DHT22;25203;50.754;6.978;2024-03-17T08:25:30;14.50;93.80
39525;DHT22;25203;50.754;6.978;2024-03-17T08:27:31;14.80;93.00
39525;DHT22;25203;50.754;6.978;2024-03-17T08:29:35;14.70;93.60
39525;DHT22;25203;50.754;6.978;2024-03-17T08:31:35;14.20;93.30
39525;DHT22;25203;50.754;6.978;2024-03-17T08:33:37;13.40;94.40
39525;DHT22;25203;50.754;6.978;2024-03-17T08:35:38;12.40;95.60
39525;DHT22;25203;50.754;6.978;2024-03-17T08:37:38;11.70;97.00
39525;DHT22;25203;50.754;6.978;2024-03-17T08:39:39;11.10;98.00
39525;DHT22;25203;50.754;6.978;2024-03-17T08:41:40;10.70;99.20
39525;DHT22;25203;50.754;6.978;2024-03-17T08:43:40;10.50;99.90
39525;DHT22;25203;50.754;6.978;2024-03-17T08:45:43;10.80;99.60
39525;DHT22;25203;50.754;6.978;2024-03-17T08:47:44;11.20;99.00
39525;DHT22;25203;50.754;6.978;2024-03-17T08:49:44;11.80;98.30
39525;DHT22;25203;50.754;6.978;2024-03-17T08:51:45;12.50;97.00
39525;DHT22;25203;50.754;6.978;2024-03-17T08:53:46;13.00;96.40
39525;DHT22;25203;50.754;6.978;2024-03-17T08:55:46;13.70;95.50
39525;DHT22;25203;50.754;6.978;2024-03-17T08:57:47;14.20;94.30
39525;DHT22;25203;50.754;6.978;2024-03-17T08:59:48;14.60;94.10
39525;DHT22;25203;50.754;6.978;2024-03-17T09:01:49;14.90;93.30
39525;DHT22;25203;50.754;6.978;2024-03-17T09:03:49;14.90;93.00
39525;DHT22;25203;50.754;6.978;2024-03-17T09:05:52;14.60;93.10
39525;DHT22;25203;50.754;6.978;2024-03-17T09:07:55;14.50;93.50
39525;DHT22;25203;50.754;6.978;2024-03-17T09:09:55;14.70;93.80
39525;DHT22;25203;50.754;6.978;2024-03-17T09:11:56;14.50;93.90
39525;DHT22;25203;50.754;6.978;2024-03-17T09:13:56;14.40;93.60
39525;DHT22;25203;50.754;6.978;2024-03-17T09:16:00;14.00;94.10
39525;DHT22;25203;50.754;6.978;2024-03-17T09:18:00;13.80;94.50
39525;DHT22;25203;50.754;6.978;2024-03-17T09:20:03;13.50;94.80
39525;DHT22;25203;50.754;6.978;2024-03-17T09:22:04;13.10;94.80
39525;DHT22;25203;50.754;6.978;2024-03-17T09:24:06;12.90;95.60
39525;DHT22;25203;50.754;6.978;2024-03-17T09:26:10;12.80;95.80
39525;DHT22;25203;50.754;6.978;2024-03-17T09:28:16;12.70;96.30
39525;DHT22;25203;50.754;6.978;2024-03-17T09:30:17;12.90;95.70
39525;DHT22;25203;50.754;6.978;2024-03-17T09:32:17;12.90;95.30
39525;DHT22;25203;50.754;6.978;2024-03-17T09:34:18;12.90;95.90
39525;DHT22;25203;50.754;6.978;2024-03-17T09:36:19;13.40;96.00
39525;DHT22;25203;50.754;6.978;2024-03-17T09:38:20;13.80;95.20
39525;DHT22;25203;50.754;6.978;2024-03-17T09:40:21;14.20;94.70
39525;DHT22;25203;50.754;6.978;2024-03-17T09:42:23;14.80;93.90
39525;DHT22;25203;50.754;6.978;2024-03-17T09:44:24;15.50;93.10
39525;DHT22;25203;50.754;6.978;2024-03-17T09:46:26;16.10;92.30
39525;DHT22;25203;50.754;6.978;2024-03-17T09:48:29;16.30;91.60
39525;DHT22;25203;50.754;6.978;2024-03-17T09:50:30;16.80;91.20
39525;DHT22;25203;50.754;6.978;2024-03-17T09:52:33;16.50;91.00
39525;DHT22;25203;50.754;6.978;2024-03-17T09:54:34;16.50;91.20
39525;DHT22;25203;50.754;6.978;2024-03-17T09:56:35;16.30;91.00
39525;DHT22;25203;50.754;6.978;2024-03-17T09:58:36;15.60;91.60
39525;DHT22;25203;50.754;6.978;2024-03-17T10:00:36;14.90;92.90
39525;DHT22;25203;50.754;6.978;2024-03-17T10:02:44;14.40;93.00
39525;DHT22;25203;50.754;6.978;2024-03-17T10:04:46;14.00;94.10
39525;DHT22;25203;50.754;6.978;2024-03-17T10:06:46;13.80;94.70
39525;DHT22;25203;50.754;6.978;2024-03-17T10:08:48;13.60;95.00
39525;DHT22;25203;50.754;6.978;2024-03-17T10:10:52;13.90;95.30
39525;DHT22;25203;50.754;6.978;2024-03-17T10:12:54;14.10;94.90
39525;DHT22;25203;50.754;6.978;2024-03-17T10:15:01;14.10;94.10
39525;DHT22;25203;50.754;6.978;2024-03-17T10:17:02;14.30;95.20
39525;DHT22;25203;50.754;6.978;2024-03-17T10:19:30;14.90;95.20
39525;DHT22;25203;50.754;6.978;2024-03-17T10:21:30;15.80;93.20
39525;DHT22;25203;50.754;6.978;2024-03-17T10:23:31;16.30;92.20
39525;DHT22;25203;50.754;6.978;2024-03-17T10:25:38;16.20;92.00
39525;DHT22;25203;50.754;6.978;2024-03-17T10:27:43;15.80;92.90
39525;DHT22;25203;50.754;6.978;2024-03-17T10:29:44;15.60;92.40
39525;DHT22;25203;50.754;6.978;2024-03-17T10:31:46;15.30;93.10
39525;DHT22;25203;50.754;6.978;2024-03-17T10:34:01;14.90;93.30
39525;DHT22;25203;50.754;6.978;2024-03-17T10:36:02;14.80;93.60
39525;DHT22;25203;50.754;6.978;2024-03-17T10:38:06;14.90;93.80
39525;DHT22;25203;50.754;6.978;2024-03-17T10:40:09;15.30;93.60
39525;DHT22;25203;50.754;6.978;2024-03-17T10:42:12;15.80;93.10
39525;DHT22;25203;50.754;6.978;2024-03-17T10:44:18;16.00;92.30
39525;DHT22;25203;50.754;6.978;2024-03-17T10:46:19;16.20;92.70
39525;DHT22;25203;50.754;6.978;2024-03-17T10:48:26;16.30;92.60
39525;DHT22;25203;50.754;6.978;2024-03-17T10:50:36;16.30;92.00
39525;DHT22;25203;50.754;6.978;2024-03-17T10:52:41;16.20;92.90
39525;DHT22;25203;50.754;6.978;2024-03-17T10:54:50;16.10;92.60
39525;DHT22;25203;50.754;6.978;2024-03-17T10:56:54;15.60;92.70
39525;DHT22;25203;50.754;6.978;2024-03-17T10:58:55;15.30;93.20
39525;DHT22;25203;50.754;6.978;2024-03-17T11:00:58;15.20;93.40
39525;DHT22;25203;50.754;6.978;2024-03-17T11:03:02;15.50;93.50
39525;DHT22;25203;50.754;6.978;2024-03-17T11:05:04;16.20;93.50
39525;DHT22;25203;50.754;6.978;2024-03-17T11:07:16;17.70;92.30
39525;DHT22;25203;50.754;6.978;2024-03-17T11:09:18;19.40;90.30
39525;DHT22;25203;50.754;6.978;2024-03-17T11:11:38;20.40;88.20
39525;DHT22;25203;50.754;6.978;2024-03-17T11:13:40;21.30;81.60
39525;DHT22;25203;50.754;6.978;2024-03-17T11:15:40;20.60;81.10
39525;DHT22;25203;50.754;6.978;2024-03-17T11:17:41;19.50;83.00
39525;DHT22;25203;50.754;6.978;2024-03-17T11:19:42;19.00;85.90
39525;DHT22;25203;50.754;6.978;2024-03-17T11:21:43;18.70;85.60
39525;DHT22;25203;50.754;6.978;2024-03-17T11:23:58;18.10;86.10
39525;DHT22;25203;50.754;6.978;2024-03-17T11:25:59;18.40;87.70
39525;DHT22;25203;50.754;6.978;2024-03-17T11:28:01;18.90;87.70
39525;DHT22;25203;50.754;6.978;2024-03-17T11:32:43;19.70;84.70
39525;DHT22;25203;50.754;6.978;2024-03-17T11:34:46;19.70;84.30
39525;DHT22;25203;50.754;6.978;2024-03-17T11:36:47;19.20;84.30
39525;DHT22;25203;50.754;6.978;2024-03-17T11:39:10;18.70;86.50
39525;DHT22;25203;50.754;6.978;2024-03-17T11:41:40;18.40;86.50
39525;DHT22;25203;50.754;6.978;2024-03-17T11:43:41;17.90;87.10
39525;DHT22;25203;50.754;6.978;2024-03-17T11:45:43;17.60;89.10
39525;DHT22;25203;50.754;6.978;2024-03-17T11:47:44;17.20;88.90
39525;DHT22;25203;50.754;6.978;2024-03-17T11:49:44;17.00;89.20
39525;DHT22;25203;50.754;6.978;2024-03-17T11:51:45;16.80;90.70
39525;DHT22;25203;50.754;6.978;2024-03-17T11:53:58;16.90;90.40
39525;DHT22;25203;50.754;6.978;2024-03-17T11:55:58;17.00;90.60
39525;DHT22;25203;50.754;6.978;2024-03-17T11:57:59;17.10;90.30
39525;DHT22;25203;50.754;6.978;2024-03-17T12:00:00;17.40;90.20
39525;DHT22;25203;50.754;6.978;2024-03-17T12:02:01;17.70;89.00
39525;DHT22;25203;50.754;6.978;2024-03-17T12:04:05;17.90;88.90
39525;DHT22;25203;50.754;6.978;2024-03-17T12:06:06;17.80;88.40
39525;DHT22;25203;50.754;6.978;2024-03-17T12:08:20;18.10;89.00
39525;DHT22;25203;50.754;6.978;2024-03-17T12:10:21;18.30;88.40
39525;DHT22;25203;50.754;6.978;2024-03-17T12:14:23;18.40;88.00
39525;DHT22;25203;50.754;6.978;2024-03-17T12:16:25;17.90;88.50
39525;DHT22;25203;50.754;6.978;2024-03-17T12:18:26;17.70;88.60
39525;DHT22;25203;50.754;6.978;2024-03-17T12:20:29;17.40;89.10
39525;DHT22;25203;50.754;6.978;2024-03-17T12:22:30;17.00;90.50
39525;DHT22;25203;50.754;6.978;2024-03-17T12:24:36;16.50;90.80
39525;DHT22;25203;50.754;6.978;2024-03-17T12:26:38;16.30;91.20
39525;DHT22;25203;50.754;6.978;2024-03-17T12:28:38;16.00;91.50
39525;DHT22;25203;50.754;6.978;2024-03-17T12:30:41;15.80;92.00
39525;DHT22;25203;50.754;6.978;2024-03-17T12:32:41;15.50;92.20
39525;DHT22;25203;50.754;6.978;2024-03-17T12:34:46;15.50;92.30
39525;DHT22;25203;50.754;6.978;2024-03-17T12:36:48;15.50;92.90
39525;DHT22;25203;50.754;6.978;2024-03-17T12:38:50;15.50;91.80
39525;DHT22;25203;50.754;6.978;2024-03-17T12:40:50;15.20;93.00
39525;DHT22;25203;50.754;6.978;2024-03-17T12:42:51;15.10;93.10
39525;DHT22;25203;50.754;6.978;2024-03-17T12:44:56;15.10;92.90
39525;DHT22;25203;50.754;6.978;2024-03-17T12:47:06;15.10;93.80
39525;DHT22;25203;50.754;6.978;2024-03-17T12:49:09;15.10;93.10
39525;DHT22;25203;50.754;6.978;2024-03-17T12:51:14;15.10;93.70
39525;DHT22;25203;50.754;6.978;2024-03-17T12:53:17;15.10;93.80
39525;DHT22;25203;50.754;6.978;2024-03-17T12:55:19;15.00;93.20
39525;DHT22;25203;50.754;6.978;2024-03-17T12:57:38;15.00;93.60
39525;DHT22;25203;50.754;6.978;2024-03-17T12:59:57;15.00;93.00
39525;DHT22;25203;50.754;6.978;2024-03-17T13:02:18;15.20;93.60
39525;DHT22;25203;50.754;6.978;2024-03-17T13:04:18;15.30;93.30
39525;DHT22;25203;50.754;6.978;2024-03-17T13:06:25;15.50;93.10
39525;DHT22;25203;50.754;6.978;2024-03-17T13:08:26;15.70;92.70
39525;DHT22;25203;50.754;6.978;2024-03-17T13:10:28;15.60;93.10